sensor_id;sensor_type;location;lat;lon;timestamp;pressure;altitude;pressure_sealevel;temperature;humidity
78745;BME280;68064;53.100;8.824;2024-01-07T00:00:53;102103.03;;;-0.51;97.83
78745;BME280;68064;53.100;8.824;2024-01-07T00:01:54;102099.59;;;-0.52;96.82
78745;BME280;68064;53.100;8.824;2024-01-07T00:02:55;102110.13;;;-0.47;97.67
78745;BME280;68064;53.100;8.824;2024-01-07T00:03:56;102112.31;;;-0.50;97.55
78745;BME280;68064;53.100;8.824;2024-01-07T00:04:57;102115.03;;;-0.49;97.31
78745;BME280;68064;53.100;8.824;2024-01-07T00:05:59;102109.28;;;-0.48;97.17
78745;BME280;68064;53.100;8.824;2024-01-07T00:07:01;102111.44;;;-0.51;96.84
78745;BME280;68064;53.100;8.824;2024-01-07T00:08:02;102115.75;;;-0.50;97.65
78745;BME280;68064;53.100;8.824;2024-01-07T00:09:04;102113.63;;;-0.54;97.09
78745;BME280;68064;53.100;8.824;2024-01-07T00:10:05;102117.34;;;-0.50;96.95
78745;BME280;68064;53.100;8.824;2024-01-07T00:11:06;102115.41;;;-0.53;97.63
78745;BME280;68064;53.100;8.824;2024-01-07T00:12:08;102125.16;;;-0.56;97.46
78745;BME280;68064;53.100;8.824;2024-01-07T00:13:08;102128.06;;;-0.60;97.33
78745;BME280;68064;53.100;8.824;2024-01-07T00:14:09;102122.50;;;-0.58;97.54
78745;BME280;68064;53.100;8.824;2024-01-07T00:15:10;102129.94;;;-0.50;98.66
78745;BME280;68064;53.100;8.824;2024-01-07T00:16:12;102127.84;;;-0.55;97.41
78745;BME280;68064;53.100;8.824;2024-01-07T00:17:13;102131.00;;;-0.48;98.35
78745;BME280;68064;53.100;8.824;2024-01-07T00:18:14;102130.91;;;-0.57;97.21
78745;BME280;68064;53.100;8.824;2024-01-07T00:19:15;102126.19;;;-0.54;97.80
78745;BME280;68064;53.100;8.824;2024-01-07T00:20:16;102130.81;;;-0.50;97.81
78745;BME280;68064;53.100;8.824;2024-01-07T00:21:17;102135.06;;;-0.58;97.48
78745;BME280;68064;53.100;8.824;2024-01-07T00:22:19;102134.31;;;-0.57;97.32
78745;BME280;68064;53.100;8.824;2024-01-07T00:23:20;102126.28;;;-0.61;96.53
78745;BME280;68064;53.100;8.824;2024-01-07T00:24:21;102125.72;;;-0.59;96.99
78745;BME280;68064;53.100;8.824;2024-01-07T00:25:22;102126.75;;;-0.57;97.49
78745;BME280;68064;53.100;8.824;2024-01-07T00:26:24;102139.00;;;-0.60;96.93
78745;BME280;68064;53.100;8.824;2024-01-07T00:27:25;102134.16;;;-0.58;97.47
78745;BME280;68064;53.100;8.824;2024-01-07T00:28:26;102137.16;;;-0.54;97.90
78745;BME280;68064;53.100;8.824;2024-01-07T00:29:27;102135.19;;;-0.56;97.07
78745;BME280;68064;53.100;8.824;2024-01-07T00:30:28;102135.91;;;-0.57;97.52
78745;BME280;68064;53.100;8.824;2024-01-07T00:31:29;102141.38;;;-0.61;96.63
78745;BME280;68064;53.100;8.824;2024-01-07T00:32:30;102140.81;;;-0.59;97.31
78745;BME280;68064;53.100;8.824;2024-01-07T00:33:31;102136.50;;;-0.60;97.42
78745;BME280;68064;53.100;8.824;2024-01-07T00:34:32;102144.69;;;-0.54;97.60
78745;BME280;68064;53.100;8.824;2024-01-07T00:35:33;102147.06;;;-0.55;98.20
78745;BME280;68064;53.100;8.824;2024-01-07T00:36:34;102141.84;;;-0.57;97.30
78745;BME280;68064;53.100;8.824;2024-01-07T00:37:37;102142.81;;;-0.63;96.57
78745;BME280;68064;53.100;8.824;2024-01-07T00:38:38;102145.97;;;-0.57;97.19
78745;BME280;68064;53.100;8.824;2024-01-07T00:39:39;102154.41;;;-0.57;97.26
78745;BME280;68064;53.100;8.824;2024-01-07T00:40:40;102144.94;;;-0.59;97.22
78745;BME280;68064;53.100;8.824;2024-01-07T00:41:41;102151.00;;;-0.57;97.97
78745;BME280;68064;53.100;8.824;2024-01-07T00:42:42;102154.34;;;-0.65;96.43
78745;BME280;68064;53.100;8.824;2024-01-07T00:43:43;102151.25;;;-0.63;97.15
78745;BME280;68064;53.100;8.824;2024-01-07T00:44:44;102151.25;;;-0.63;97.05
78745;BME280;68064;53.100;8.824;2024-01-07T00:45:45;102149.06;;;-0.60;97.42
78745;BME280;68064;53.100;8.824;2024-01-07T00:46:46;102156.22;;;-0.56;97.76
78745;BME280;68064;53.100;8.824;2024-01-07T00:47:48;102150.53;;;-0.62;97.08
78745;BME280;68064;53.100;8.824;2024-01-07T00:48:49;102155.56;;;-0.62;96.99
78745;BME280;68064;53.100;8.824;2024-01-07T00:49:59;102153.44;;;-0.66;97.02
78745;BME280;68064;53.100;8.824;2024-01-07T00:51:00;102157.75;;;-0.65;97.11
78745;BME280;68064;53.100;8.824;2024-01-07T00:52:01;102149.88;;;-0.68;96.72
78745;BME280;68064;53.100;8.824;2024-01-07T00:53:04;102153.44;;;-0.66;97.15
78745;BME280;68064;53.100;8.824;2024-01-07T00:54:05;102163.09;;;-0.62;97.45
78745;BME280;68064;53.100;8.824;2024-01-07T00:55:06;102163.09;;;-0.62;96.99
78745;BME280;68064;53.100;8.824;2024-01-07T00:56:07;102165.56;;;-0.55;97.46
78745;BME280;68064;53.100;8.824;2024-01-07T00:57:10;102167.16;;;-0.71;96.54
78745;BME280;68064;53.100;8.824;2024-01-07T00:58:11;102166.56;;;-0.68;96.35
78745;BME280;68064;53.100;8.824;2024-01-07T00:59:12;102176.97;;;-0.65;96.99
78745;BME280;68064;53.100;8.824;2024-01-07T01:00:14;102180.03;;;-0.68;96.33
78745;BME280;68064;53.100;8.824;2024-01-07T01:01:15;102166.81;;;-0.74;96.15
78745;BME280;68064;53.100;8.824;2024-01-07T01:02:16;102177.34;;;-0.69;96.67
78745;BME280;68064;53.100;8.824;2024-01-07T01:03:17;102183.59;;;-0.66;97.16
78745;BME280;68064;53.100;8.824;2024-01-07T01:04:18;102157.88;;;-0.79;96.67
78745;BME280;68064;53.100;8.824;2024-01-07T01:05:19;102173.59;;;-0.73;96.80
78745;BME280;68064;53.100;8.824;2024-01-07T01:06:20;102169.81;;;-0.69;96.79
78745;BME280;68064;53.100;8.824;2024-01-07T01:07:21;102181.47;;;-0.70;96.34
78745;BME280;68064;53.100;8.824;2024-01-07T01:08:24;102179.38;;;-0.74;97.27
78745;BME280;68064;53.100;8.824;2024-01-07T01:09:27;102181.38;;;-0.78;96.46
78745;BME280;68064;53.100;8.824;2024-01-07T01:10:29;102177.41;;;-0.76;96.83
78745;BME280;68064;53.100;8.824;2024-01-07T01:11:30;102185.84;;;-0.76;96.52
78745;BME280;68064;53.100;8.824;2024-01-07T01:12:31;102189.22;;;-0.68;97.65
78745;BME280;68064;53.100;8.824;2024-01-07T01:13:32;102189.03;;;-0.70;97.29
78745;BME280;68064;53.100;8.824;2024-01-07T01:14:33;102187.31;;;-0.78;96.88
78745;BME280;68064;53.100;8.824;2024-01-07T01:15:34;102189.78;;;-0.71;97.13
78745;BME280;68064;53.100;8.824;2024-01-07T01:16:35;102193.00;;;-0.72;96.65
78745;BME280;68064;53.100;8.824;2024-01-07T01:17:36;102192.09;;;-0.72;97.03
78745;BME280;68064;53.100;8.824;2024-01-07T01:18:37;102190.41;;;-0.80;97.04
78745;BME280;68064;53.100;8.824;2024-01-07T01:19:39;102193.00;;;-0.72;97.59
78745;BME280;68064;53.100;8.824;2024-01-07T01:20:40;102192.81;;;-0.73;98.04
78745;BME280;68064;53.100;8.824;2024-01-07T01:21:41;102187.66;;;-0.75;97.53
78745;BME280;68064;53.100;8.824;2024-01-07T01:22:42;102189.09;;;-0.77;97.98
78745;BME280;68064;53.100;8.824;2024-01-07T01:23:46;102186.97;;;-0.81;97.24
78745;BME280;68064;53.100;8.824;2024-01-07T01:24:47;102195.91;;;-0.76;97.65
78745;BME280;68064;53.100;8.824;2024-01-07T01:25:49;102199.81;;;-0.71;98.39
78745;BME280;68064;53.100;8.824;2024-01-07T01:26:50;102193.72;;;-0.73;98.92
78745;BME280;68064;53.100;8.824;2024-01-07T01:27:51;102195.34;;;-0.73;98.39
78745;BME280;68064;53.100;8.824;2024-01-07T01:28:52;102196.97;;;-0.74;98.18
78745;BME280;68064;53.100;8.824;2024-01-07T01:29:53;102200.16;;;-0.68;98.42
78745;BME280;68064;53.100;8.824;2024-01-07T01:30:54;102196.41;;;-0.71;97.60
78745;BME280;68064;53.100;8.824;2024-01-07T01:31:56;102201.81;;;-0.75;98.53
78745;BME280;68064;53.100;8.824;2024-01-07T01:32:57;102203.28;;;-0.77;98.12
78745;BME280;68064;53.100;8.824;2024-01-07T01:33:58;102196.09;;;-0.74;98.07
78745;BME280;68064;53.100;8.824;2024-01-07T01:35:00;102200.22;;;-0.75;98.64
78745;BME280;68064;53.100;8.824;2024-01-07T01:36:04;102202.00;;;-0.74;98.81
78745;BME280;68064;53.100;8.824;2024-01-07T01:37:05;102211.72;;;-0.77;98.30
78745;BME280;68064;53.100;8.824;2024-01-07T01:38:06;102210.56;;;-0.87;98.71
78745;BME280;68064;53.100;8.824;2024-01-07T01:39:09;102215.25;;;-0.90;98.01
78745;BME280;68064;53.100;8.824;2024-01-07T01:40:11;102213.78;;;-0.88;98.42
78745;BME280;68064;53.100;8.824;2024-01-07T01:41:12;102213.97;;;-0.87;98.54
78745;BME280;68064;53.100;8.824;2024-01-07T01:42:14;102211.78;;;-0.84;98.91
78745;BME280;68064;53.100;8.824;2024-01-07T01:43:22;102221.41;;;-0.80;98.61
78745;BME280;68064;53.100;8.824;2024-01-07T01:44:23;102211.22;;;-0.81;98.67
78745;BME280;68064;53.100;8.824;2024-01-07T01:45:24;102223.56;;;-0.76;98.50
78745;BME280;68064;53.100;8.824;2024-01-07T01:46:25;102227.19;;;-0.81;98.43
78745;BME280;68064;53.100;8.824;2024-01-07T01:47:26;102221.16;;;-0.90;98.00
78745;BME280;68064;53.100;8.824;2024-01-07T01:48:27;102228.63;;;-0.83;98.17
78745;BME280;68064;53.100;8.824;2024-01-07T01:49:29;102225.06;;;-0.85;98.33
78745;BME280;68064;53.100;8.824;2024-01-07T01:50:30;102227.81;;;-0.90;98.14
78745;BME280;68064;53.100;8.824;2024-01-07T01:51:31;102232.59;;;-0.85;98.92
78745;BME280;68064;53.100;8.824;2024-01-07T01:52:32;102225.97;;;-0.84;99.27
78745;BME280;68064;53.100;8.824;2024-01-07T01:53:33;102232.56;;;-0.78;99.40
78745;BME280;68064;53.100;8.824;2024-01-07T01:54:36;102230.38;;;-0.75;98.86
78745;BME280;68064;53.100;8.824;2024-01-07T01:55:37;102234.16;;;-0.78;99.18
78745;BME280;68064;53.100;8.824;2024-01-07T01:56:39;102228.59;;;-0.76;98.24
78745;BME280;68064;53.100;8.824;2024-01-07T01:57:40;102229.84;;;-0.79;98.38
78745;BME280;68064;53.100;8.824;2024-01-07T01:58:42;102231.88;;;-0.84;98.50
78745;BME280;68064;53.100;8.824;2024-01-07T01:59:43;102234.00;;;-0.80;99.28
78745;BME280;68064;53.100;8.824;2024-01-07T02:00:44;102227.75;;;-0.83;99.35
78745;BME280;68064;53.100;8.824;2024-01-07T02:01:46;102236.72;;;-0.85;98.62
78745;BME280;68064;53.100;8.824;2024-01-07T02:02:47;102231.94;;;-0.91;98.28
78745;BME280;68064;53.100;8.824;2024-01-07T02:03:49;102231.31;;;-0.81;99.25
78745;BME280;68064;53.100;8.824;2024-01-07T02:04:50;102231.31;;;-0.81;98.53
78745;BME280;68064;53.100;8.824;2024-01-07T02:05:51;102236.25;;;-0.90;97.76
78745;BME280;68064;53.100;8.824;2024-01-07T02:06:53;102240.41;;;-0.97;98.30
78745;BME280;68064;53.100;8.824;2024-01-07T02:07:55;102241.94;;;-0.84;98.79
78745;BME280;68064;53.100;8.824;2024-01-07T02:08:56;102239.81;;;-0.88;98.55
78745;BME280;68064;53.100;8.824;2024-01-07T02:09:59;102249.16;;;-0.87;98.23
78745;BME280;68064;53.100;8.824;2024-01-07T02:11:14;102243.13;;;-0.96;97.32
78745;BME280;68064;53.100;8.824;2024-01-07T02:12:15;102247.41;;;-0.95;97.67
78745;BME280;68064;53.100;8.824;2024-01-07T02:13:16;102244.84;;;-0.88;98.16
78745;BME280;68064;53.100;8.824;2024-01-07T02:14:17;102257.25;;;-0.89;97.75
78745;BME280;68064;53.100;8.824;2024-01-07T02:15:19;102247.94;;;-0.97;96.81
78745;BME280;68064;53.100;8.824;2024-01-07T02:16:20;102250.25;;;-0.92;97.93
78745;BME280;68064;53.100;8.824;2024-01-07T02:17:21;102246.81;;;-0.92;97.61
78745;BME280;68064;53.100;8.824;2024-01-07T02:18:22;102257.78;;;-0.92;97.37
78745;BME280;68064;53.100;8.824;2024-01-07T02:19:23;102253.84;;;-0.90;97.14
78745;BME280;68064;53.100;8.824;2024-01-07T02:20:24;102264.09;;;-0.95;96.95
78745;BME280;68064;53.100;8.824;2024-01-07T02:21:25;102257.97;;;-0.90;96.93
78745;BME280;68064;53.100;8.824;2024-01-07T02:22:26;102253.50;;;-0.93;96.77
78745;BME280;68064;53.100;8.824;2024-01-07T02:23:27;102255.69;;;-0.96;95.75
78745;BME280;68064;53.100;8.824;2024-01-07T02:24:30;102256.53;;;-0.95;96.48
78745;BME280;68064;53.100;8.824;2024-01-07T02:25:35;102262.13;;;-0.98;96.02
78745;BME280;68064;53.100;8.824;2024-01-07T02:26:36;102264.28;;;-0.94;96.69
78745;BME280;68064;53.100;8.824;2024-01-07T02:27:37;102258.00;;;-0.97;96.59
78745;BME280;68064;53.100;8.824;2024-01-07T02:28:38;102260.16;;;-0.93;96.59
78745;BME280;68064;53.100;8.824;2024-01-07T02:29:39;102253.16;;;-0.96;95.97
78745;BME280;68064;53.100;8.824;2024-01-07T02:30:41;102247.94;;;-0.97;95.86
78745;BME280;68064;53.100;8.824;2024-01-07T02:31:42;102258.19;;;-0.96;95.69
78745;BME280;68064;53.100;8.824;2024-01-07T02:32:43;102272.19;;;-0.98;95.69
78745;BME280;68064;53.100;8.824;2024-01-07T02:33:44;102261.41;;;-0.97;95.93
78745;BME280;68064;53.100;8.824;2024-01-07T02:34:45;102261.41;;;-0.97;95.88
78745;BME280;68064;53.100;8.824;2024-01-07T02:35:46;102270.94;;;-1.01;94.84
78745;BME280;68064;53.100;8.824;2024-01-07T02:36:47;102257.34;;;-1.03;95.17
78745;BME280;68064;53.100;8.824;2024-01-07T02:37:48;102265.03;;;-1.02;94.48
78745;BME280;68064;53.100;8.824;2024-01-07T02:38:49;102267.53;;;-1.02;95.52
78745;BME280;68064;53.100;8.824;2024-01-07T02:39:52;102271.28;;;-0.98;95.20
78745;BME280;68064;53.100;8.824;2024-01-07T02:40:53;102267.00;;;-0.99;95.56
78745;BME280;68064;53.100;8.824;2024-01-07T02:41:54;102263.59;;;-1.00;94.93
78745;BME280;68064;53.100;8.824;2024-01-07T02:42:55;102263.38;;;-0.94;94.97
78745;BME280;68064;53.100;8.824;2024-01-07T02:43:56;102268.72;;;-0.91;95.83
78745;BME280;68064;53.100;8.824;2024-01-07T02:44:57;102263.94;;;-0.97;95.35
78745;BME280;68064;53.100;8.824;2024-01-07T02:45:58;102270.19;;;-0.93;95.62
78745;BME280;68064;53.100;8.824;2024-01-07T02:47:00;102278.44;;;-0.94;95.08
78745;BME280;68064;53.100;8.824;2024-01-07T02:48:01;102276.13;;;-0.93;95.81
78745;BME280;68064;53.100;8.824;2024-01-07T02:49:02;102281.53;;;-0.97;95.03
78745;BME280;68064;53.100;8.824;2024-01-07T02:50:03;102285.09;;;-0.95;94.65
78745;BME280;68064;53.100;8.824;2024-01-07T02:51:04;102290.78;;;-0.89;95.00
78745;BME280;68064;53.100;8.824;2024-01-07T02:52:05;102284.59;;;-0.99;94.04
78745;BME280;68064;53.100;8.824;2024-01-07T02:53:06;102286.34;;;-0.98;94.10
78745;BME280;68064;53.100;8.824;2024-01-07T02:54:08;102291.94;;;-1.01;94.55
78745;BME280;68064;53.100;8.824;2024-01-07T02:55:10;102291.94;;;-1.01;94.22
78745;BME280;68064;53.100;8.824;2024-01-07T02:56:11;102295.34;;;-1.00;94.93
78745;BME280;68064;53.100;8.824;2024-01-07T02:57:12;102293.03;;;-0.99;94.09
78745;BME280;68064;53.100;8.824;2024-01-07T02:58:13;102291.56;;;-0.97;95.32
78745;BME280;68064;53.100;8.824;2024-01-07T02:59:15;102295.34;;;-1.00;94.35
78745;BME280;68064;53.100;8.824;2024-01-07T03:00:16;102294.50;;;-1.08;92.98
78745;BME280;68064;53.100;8.824;2024-01-07T03:01:17;102298.25;;;-1.04;93.37
78745;BME280;68064;53.100;8.824;2024-01-07T03:02:19;102296.47;;;-1.05;93.45
78745;BME280;68064;53.100;8.824;2024-01-07T03:03:20;102302.19;;;-0.99;94.61
78745;BME280;68064;53.100;8.824;2024-01-07T03:04:21;102307.31;;;-0.91;95.49
78745;BME280;68064;53.100;8.824;2024-01-07T03:05:22;102303.44;;;-0.96;94.47
78745;BME280;68064;53.100;8.824;2024-01-07T03:06:26;102305.03;;;-0.96;94.31
78745;BME280;68064;53.100;8.824;2024-01-07T03:07:27;102305.53;;;-0.92;95.36
78745;BME280;68064;53.100;8.824;2024-01-07T03:08:28;102303.47;;;-1.03;94.11
78745;BME280;68064;53.100;8.824;2024-01-07T03:09:29;102307.22;;;-0.99;94.10
78745;BME280;68064;53.100;8.824;2024-01-07T03:10:32;102305.41;;;-1.00;94.00
78745;BME280;68064;53.100;8.824;2024-01-07T03:11:33;102308.44;;;-0.96;94.41
78745;BME280;68064;53.100;8.824;2024-01-07T03:12:34;102305.22;;;-1.02;93.81
78745;BME280;68064;53.100;8.824;2024-01-07T03:13:35;102309.72;;;-0.99;94.25
78745;BME280;68064;53.100;8.824;2024-01-07T03:14:36;102316.50;;;-0.98;94.49
78745;BME280;68064;53.100;8.824;2024-01-07T03:15:38;102310.44;;;-1.00;94.53
78745;BME280;68064;53.100;8.824;2024-01-07T03:16:39;102308.81;;;-1.00;94.65
78745;BME280;68064;53.100;8.824;2024-01-07T03:17:40;102308.97;;;-0.98;94.93
78745;BME280;68064;53.100;8.824;2024-01-07T03:18:41;102305.22;;;-1.02;94.01
78745;BME280;68064;53.100;8.824;2024-01-07T03:19:42;102311.16;;;-1.01;93.87
78745;BME280;68064;53.100;8.824;2024-01-07T03:20:43;102312.22;;;-0.99;93.91
78745;BME280;68064;53.100;8.824;2024-01-07T03:21:44;102307.06;;;-1.08;93.15
78745;BME280;68064;53.100;8.824;2024-01-07T03:22:45;102316.69;;;-0.97;95.25
78745;BME280;68064;53.100;8.824;2024-01-07T03:23:46;102300.38;;;-1.00;94.30
78745;BME280;68064;53.100;8.824;2024-01-07T03:24:48;102313.16;;;-1.06;93.25
78745;BME280;68064;53.100;8.824;2024-01-07T03:25:50;102317.63;;;-1.03;94.00
78745;BME280;68064;53.100;8.824;2024-01-07T03:26:51;102309.91;;;-1.05;93.51
78745;BME280;68064;53.100;8.824;2024-01-07T03:27:52;102309.75;;;-1.07;92.48
78745;BME280;68064;53.100;8.824;2024-01-07T03:28:54;102312.94;;;-1.00;93.79
78745;BME280;68064;53.100;8.824;2024-01-07T03:29:55;102315.47;;;-1.00;94.32
78745;BME280;68064;53.100;8.824;2024-01-07T03:30:56;102317.44;;;-1.05;93.00
78745;BME280;68064;53.100;8.824;2024-01-07T03:31:57;102319.81;;;-1.07;92.97
78745;BME280;68064;53.100;8.824;2024-01-07T03:32:58;102321.41;;;-1.07;93.17
78745;BME280;68064;53.100;8.824;2024-01-07T03:33:59;102316.59;;;-1.05;92.61
78745;BME280;68064;53.100;8.824;2024-01-07T03:35:00;102323.59;;;-1.10;91.87
78745;BME280;68064;53.100;8.824;2024-01-07T03:36:01;102321.75;;;-1.04;93.84
78745;BME280;68064;53.100;8.824;2024-01-07T03:37:07;102320.84;;;-1.04;92.97
78745;BME280;68064;53.100;8.824;2024-01-07T03:38:08;102318.53;;;-1.03;93.10
78745;BME280;68064;53.100;8.824;2024-01-07T03:39:09;102324.97;;;-1.05;93.45
78745;BME280;68064;53.100;8.824;2024-01-07T03:40:10;102318.53;;;-1.03;94.12
78745;BME280;68064;53.100;8.824;2024-01-07T03:41:17;102331.47;;;-1.07;92.78
78745;BME280;68064;53.100;8.824;2024-01-07T03:42:19;102330.34;;;-1.02;93.61
78745;BME280;68064;53.100;8.824;2024-01-07T03:43:19;102324.94;;;-0.98;94.68
78745;BME280;68064;53.100;8.824;2024-01-07T03:44:20;102334.84;;;-0.99;93.50
78745;BME280;68064;53.100;8.824;2024-01-07T03:45:21;102333.59;;;-1.03;92.92
78745;BME280;68064;53.100;8.824;2024-01-07T03:46:23;102333.06;;;-1.00;93.65
78745;BME280;68064;53.100;8.824;2024-01-07T03:47:24;102334.31;;;-1.04;93.60
78745;BME280;68064;53.100;8.824;2024-01-07T03:48:25;102332.00;;;-1.02;93.70
78745;BME280;68064;53.100;8.824;2024-01-07T03:49:26;102331.09;;;-1.03;93.19
78745;BME280;68064;53.100;8.824;2024-01-07T03:50:27;102335.94;;;-1.04;93.32
78745;BME280;68064;53.100;8.824;2024-01-07T03:51:28;102339.91;;;-1.07;92.61
78745;BME280;68064;53.100;8.824;2024-01-07T03:52:29;102335.81;;;-1.13;91.46
78745;BME280;68064;53.100;8.824;2024-01-07T03:53:30;102339.22;;;-1.13;91.56
78745;BME280;68064;53.100;8.824;2024-01-07T03:54:31;102337.06;;;-1.10;92.27
78745;BME280;68064;53.100;8.824;2024-01-07T03:55:32;102339.19;;;-1.05;92.86
78745;BME280;68064;53.100;8.824;2024-01-07T03:56:35;102341.53;;;-1.07;93.33
78745;BME280;68064;53.100;8.824;2024-01-07T03:57:36;102347.78;;;-1.03;93.33
78745;BME280;68064;53.100;8.824;2024-01-07T03:58:37;102348.13;;;-1.00;95.26
78745;BME280;68064;53.100;8.824;2024-01-07T03:59:38;102347.22;;;-1.01;94.59
78745;BME280;68064;53.100;8.824;2024-01-07T04:00:39;102347.44;;;-1.07;93.38
78745;BME280;68064;53.100;8.824;2024-01-07T04:01:40;102349.06;;;-1.07;92.79
78745;BME280;68064;53.100;8.824;2024-01-07T04:02:41;102349.06;;;-1.07;92.71
78745;BME280;68064;53.100;8.824;2024-01-07T04:03:42;102349.06;;;-1.07;92.83
78745;BME280;68064;53.100;8.824;2024-01-07T04:04:43;102353.03;;;-1.09;92.86
78745;BME280;68064;53.100;8.824;2024-01-07T04:05:44;102349.78;;;-1.08;92.99
78745;BME280;68064;53.100;8.824;2024-01-07T04:06:45;102353.16;;;-1.00;94.34
78745;BME280;68064;53.100;8.824;2024-01-07T04:07:46;102345.09;;;-1.05;93.36
78745;BME280;68064;53.100;8.824;2024-01-07T04:08:47;102351.00;;;-1.04;92.28
78745;BME280;68064;53.100;8.824;2024-01-07T04:09:51;102350.84;;;-1.06;93.60
78745;BME280;68064;53.100;8.824;2024-01-07T04:10:52;102357.66;;;-1.05;93.04
78745;BME280;68064;53.100;8.824;2024-01-07T04:11:54;102357.13;;;-1.02;93.92
78745;BME280;68064;53.100;8.824;2024-01-07T04:12:56;102365.03;;;-1.07;92.82
78745;BME280;68064;53.100;8.824;2024-01-07T04:13:57;102359.44;;;-1.04;92.83
78745;BME280;68064;53.100;8.824;2024-01-07T04:14:58;102360.16;;;-1.05;93.55
78745;BME280;68064;53.100;8.824;2024-01-07T04:15:59;102361.09;;;-1.12;91.80
78745;BME280;68064;53.100;8.824;2024-01-07T04:17:00;102366.28;;;-1.03;93.94
78745;BME280;68064;53.100;8.824;2024-01-07T04:18:02;102366.09;;;-1.04;92.88
78745;BME280;68064;53.100;8.824;2024-01-07T04:19:03;102375.25;;;-1.05;93.17
78745;BME280;68064;53.100;8.824;2024-01-07T04:20:06;102373.06;;;-1.02;92.94
78745;BME280;68064;53.100;8.824;2024-01-07T04:21:09;102366.09;;;-1.04;93.41
78745;BME280;68064;53.100;8.824;2024-01-07T04:22:10;102369.84;;;-1.01;93.72
78745;BME280;68064;53.100;8.824;2024-01-07T04:23:11;102374.75;;;-1.10;92.39
78745;BME280;68064;53.100;8.824;2024-01-07T04:24:12;102376.53;;;-1.09;91.91
78745;BME280;68064;53.100;8.824;2024-01-07T04:25:13;102379.06;;;-1.16;91.19
78745;BME280;68064;53.100;8.824;2024-01-07T04:26:15;102375.44;;;-1.11;92.20
78745;BME280;68064;53.100;8.824;2024-01-07T04:27:17;102382.84;;;-1.12;91.90
78745;BME280;68064;53.100;8.824;2024-01-07T04:28:18;102385.72;;;-1.16;91.53
78745;BME280;68064;53.100;8.824;2024-01-07T04:29:22;102385.34;;;-1.12;92.14
78745;BME280;68064;53.100;8.824;2024-01-07T04:30:23;102385.16;;;-1.14;92.16
78745;BME280;68064;53.100;8.824;2024-01-07T04:31:24;102383.19;;;-1.09;92.32
78745;BME280;68064;53.100;8.824;2024-01-07T04:32:25;102386.41;;;-1.10;92.73
78745;BME280;68064;53.100;8.824;2024-01-07T04:33:26;102377.81;;;-1.12;92.49
78745;BME280;68064;53.100;8.824;2024-01-07T04:34:27;102386.19;;;-1.04;93.70
78745;BME280;68064;53.100;8.824;2024-01-07T04:35:28;102392.88;;;-1.12;92.05
78745;BME280;68064;53.100;8.824;2024-01-07T04:36:30;102391.22;;;-1.12;92.20
78745;BME280;68064;53.100;8.824;2024-01-07T04:37:31;102395.00;;;-1.08;93.24
78745;BME280;68064;53.100;8.824;2024-01-07T04:38:32;102403.28;;;-1.09;93.29
78745;BME280;68064;53.100;8.824;2024-01-07T04:39:33;102399.50;;;-1.13;92.53
78745;BME280;68064;53.100;8.824;2024-01-07T04:40:34;102400.94;;;-1.15;91.79
78745;BME280;68064;53.100;8.824;2024-01-07T04:41:35;102398.63;;;-1.13;92.94
78745;BME280;68064;53.100;8.824;2024-01-07T04:42:37;102402.75;;;-1.21;90.96
78745;BME280;68064;53.100;8.824;2024-01-07T04:43:39;102405.81;;;-1.16;91.79
78745;BME280;68064;53.100;8.824;2024-01-07T04:44:39;102405.25;;;-1.14;92.99
78745;BME280;68064;53.100;8.824;2024-01-07T04:45:41;102410.13;;;-1.22;91.16
78745;BME280;68064;53.100;8.824;2024-01-07T04:46:42;102414.41;;;-1.21;91.34
78745;BME280;68064;53.100;8.824;2024-01-07T04:47:43;102409.00;;;-1.10;93.24
78745;BME280;68064;53.100;8.824;2024-01-07T04:48:44;102413.34;;;-1.16;92.01
78745;BME280;68064;53.100;8.824;2024-01-07T04:49:45;102421.78;;;-1.16;92.02
78745;BME280;68064;53.100;8.824;2024-01-07T04:50:46;102401.00;;;-1.22;93.32
78745;BME280;68064;53.100;8.824;2024-01-07T04:51:47;102414.59;;;-1.13;92.39
78745;BME280;68064;53.100;8.824;2024-01-07T04:52:49;102424.44;;;-1.14;93.09
78745;BME280;68064;53.100;8.824;2024-01-07T04:53:50;102427.88;;;-1.14;92.76
78745;BME280;68064;53.100;8.824;2024-01-07T04:54:51;102426.81;;;-1.16;93.16
78745;BME280;68064;53.100;8.824;2024-01-07T04:55:52;102430.22;;;-1.22;91.84
78745;BME280;68064;53.100;8.824;2024-01-07T04:56:53;102428.63;;;-1.22;92.04
78745;BME280;68064;53.100;8.824;2024-01-07T04:57:55;102427.72;;;-1.22;92.29
78745;BME280;68064;53.100;8.824;2024-01-07T04:58:56;102438.28;;;-1.18;93.17
78745;BME280;68064;53.100;8.824;2024-01-07T04:59:57;102429.69;;;-1.27;91.04
78745;BME280;68064;53.100;8.824;2024-01-07T05:00:59;102432.91;;;-1.21;93.36
78745;BME280;68064;53.100;8.824;2024-01-07T05:02:00;102432.03;;;-1.28;91.41
78745;BME280;68064;53.100;8.824;2024-01-07T05:03:01;102423.97;;;-1.33;92.19
78745;BME280;68064;53.100;8.824;2024-01-07T05:04:02;102427.19;;;-1.27;92.40
78745;BME280;68064;53.100;8.824;2024-01-07T05:05:04;102432.41;;;-1.25;92.15
78745;BME280;68064;53.100;8.824;2024-01-07T05:06:07;102440.09;;;-1.31;92.70
78745;BME280;68064;53.100;8.824;2024-01-07T05:07:09;102444.59;;;-1.28;92.03
78745;BME280;68064;53.100;8.824;2024-01-07T05:08:10;102441.69;;;-1.24;93.02
78745;BME280;68064;53.100;8.824;2024-01-07T05:09:11;102443.00;;;-1.28;92.21
78745;BME280;68064;53.100;8.824;2024-01-07T05:10:12;102447.13;;;-1.28;92.61
78745;BME280;68064;53.100;8.824;2024-01-07T05:11:13;102455.38;;;-1.36;91.01
78745;BME280;68064;53.100;8.824;2024-01-07T05:12:14;102453.41;;;-1.39;90.77
78745;BME280;68064;53.100;8.824;2024-01-07T05:13:16;102441.91;;;-1.37;92.23
78745;BME280;68064;53.100;8.824;2024-01-07T05:14:17;102457.72;;;-1.38;91.70
78745;BME280;68064;53.100;8.824;2024-01-07T05:15:19;102454.47;;;-1.37;92.13
78745;BME280;68064;53.100;8.824;2024-01-07T05:16:20;102457.53;;;-1.32;92.69
78745;BME280;68064;53.100;8.824;2024-01-07T05:17:21;102460.19;;;-1.31;93.01
78745;BME280;68064;53.100;8.824;2024-01-07T05:18:23;102457.16;;;-1.35;92.90
78745;BME280;68064;53.100;8.824;2024-01-07T05:19:25;102466.84;;;-1.38;92.06
78745;BME280;68064;53.100;8.824;2024-01-07T05:20:26;102462.91;;;-1.36;92.43
78745;BME280;68064;53.100;8.824;2024-01-07T05:21:27;102477.59;;;-1.32;93.58